createdAt,value
2019-03-26T00:00:36.686Z,8.49
2019-03-26T00:03:09.208Z,8.38
2019-03-26T00:05:41.705Z,8.27
2019-03-26T00:08:14.137Z,8.23
2019-03-26T00:10:46.572Z,8.23
2019-03-26T00:13:19.029Z,8.22
2019-03-26T00:15:51.859Z,8.20
2019-03-26T00:18:24.307Z,8.18
2019-03-26T00:20:57.322Z,8.17
2019-03-26T00:23:29.994Z,8.18
2019-03-26T00:26:02.525Z,8.11
2019-03-26T00:28:34.941Z,8.03
2019-03-26T00:31:07.366Z,7.98
2019-03-26T00:33:40.122Z,7.90
2019-03-26T00:36:12.646Z,7.98
2019-03-26T00:38:45.142Z,8.01
2019-03-26T00:41:17.681Z,8.02
2019-03-26T00:43:50.099Z,7.94
2019-03-26T00:46:22.534Z,7.82
2019-03-26T00:48:55.127Z,7.67
2019-03-26T00:51:27.589Z,7.61
2019-03-26T00:54:00.099Z,7.59
2019-03-26T00:56:32.953Z,7.59
2019-03-26T00:59:05.386Z,7.57
2019-03-26T01:01:38.088Z,7.64
2019-03-26T01:04:10.620Z,7.63
2019-03-26T01:06:43.052Z,7.64
2019-03-26T01:09:15.475Z,7.65
2019-03-26T01:11:47.897Z,7.64
2019-03-26T01:14:20.380Z,7.66
2019-03-26T01:16:53.031Z,7.69
2019-03-26T01:19:25.497Z,7.73
2019-03-26T01:21:57.969Z,7.71
2019-03-26T01:24:30.409Z,7.68
2019-03-26T01:27:02.825Z,7.66
2019-03-26T01:29:35.227Z,7.65
2019-03-26T01:32:07.980Z,7.64
2019-03-26T01:34:45.875Z,7.65
2019-03-26T01:37:14.626Z,7.66
2019-03-26T01:39:47.200Z,7.72
2019-03-26T01:42:19.679Z,7.81
2019-03-26T01:44:52.126Z,7.89
2019-03-26T01:47:24.714Z,7.91
2019-03-26T01:49:57.203Z,7.90
2019-03-26T01:52:29.739Z,7.86
2019-03-26T01:55:02.256Z,7.83
2019-03-26T01:57:34.741Z,7.82
2019-03-26T02:00:07.702Z,7.84
2019-03-26T02:02:40.228Z,7.86
2019-03-26T02:05:12.643Z,7.88
2019-03-26T02:07:45.533Z,7.90
2019-03-26T02:10:18.163Z,7.97
2019-03-26T02:12:50.879Z,8.01
2019-03-26T02:15:31.243Z,8.00
2019-03-26T02:18:04.322Z,7.96
2019-03-26T02:20:36.794Z,7.91
2019-03-26T02:23:09.315Z,7.88
2019-03-26T02:25:41.816Z,7.87
2019-03-26T02:28:14.396Z,7.86
2019-03-26T02:30:46.797Z,7.97
2019-03-26T02:33:19.326Z,7.97
2019-03-26T02:35:51.816Z,7.98
2019-03-26T02:38:24.364Z,8.06
2019-03-26T02:40:56.777Z,8.11
2019-03-26T02:43:29.151Z,8.09
2019-03-26T02:46:01.839Z,8.06
2019-03-26T02:48:34.287Z,8.07
2019-03-26T02:51:06.977Z,8.08
2019-03-26T02:53:39.433Z,8.06
2019-03-26T02:56:11.943Z,8.03
2019-03-26T02:58:45.509Z,7.98
2019-03-26T03:01:18.011Z,7.97
2019-03-26T03:03:50.469Z,7.96
2019-03-26T03:06:22.962Z,8.00
2019-03-26T03:08:55.383Z,7.99
2019-03-26T03:11:27.814Z,7.96
2019-03-26T03:14:00.265Z,7.93
2019-03-26T03:16:32.767Z,7.91
2019-03-26T03:19:05.159Z,7.91
2019-03-26T03:21:37.714Z,7.96
2019-03-26T03:24:10.269Z,8.02
2019-03-26T03:26:42.675Z,8.12
2019-03-26T03:29:15.079Z,8.17
2019-03-26T03:36:52.270Z,8.29
2019-03-26T03:39:24.716Z,8.26
2019-03-26T03:41:57.136Z,8.25
2019-03-26T03:44:29.661Z,8.25
2019-03-26T03:47:04.253Z,8.25
2019-03-26T03:49:36.889Z,8.25
2019-03-26T03:52:10.522Z,8.25
2019-03-26T03:54:45.879Z,8.28
2019-03-26T03:57:20.058Z,8.31
2019-03-26T03:59:53.350Z,8.34
2019-03-26T04:02:25.842Z,8.36
2019-03-26T04:04:58.229Z,8.35
2019-03-26T04:07:30.661Z,8.27
2019-03-26T04:10:03.029Z,8.20
2019-03-26T04:12:35.569Z,8.10
2019-03-26T04:15:08.695Z,8.05
2019-03-26T04:17:41.281Z,8.02
2019-03-26T04:20:13.710Z,8.02
2019-03-26T04:22:46.112Z,8.02
2019-03-26T04:25:18.699Z,8.03
2019-03-26T04:27:51.199Z,8.01
2019-03-26T04:30:30.889Z,8.02
2019-03-26T04:33:03.408Z,8.04
2019-03-26T04:35:35.804Z,8.08
2019-03-26T04:38:08.235Z,8.14
2019-03-26T04:40:40.598Z,8.18
2019-03-26T04:43:13.416Z,8.24
2019-03-26T04:45:45.823Z,8.27
2019-03-26T04:48:18.338Z,8.30
2019-03-26T04:50:51.976Z,8.30
2019-03-26T04:53:24.641Z,8.27
2019-03-26T04:55:57.033Z,8.27
2019-03-26T04:58:29.455Z,8.24
2019-03-26T05:01:01.940Z,8.22
2019-03-26T05:03:34.659Z,8.22
2019-03-26T05:06:07.214Z,8.24
2019-03-26T05:08:39.650Z,8.24
2019-03-26T05:11:12.206Z,8.22
2019-03-26T05:13:46.047Z,8.18
2019-03-26T05:16:18.581Z,8.18
2019-03-26T05:18:51.012Z,8.14
2019-03-26T05:21:23.862Z,8.12
2019-03-26T05:23:56.284Z,8.11
2019-03-26T05:26:28.722Z,8.13
2019-03-26T05:29:01.213Z,8.15
2019-03-26T05:36:50.368Z,8.12
2019-03-26T05:39:12.163Z,8.12
2019-03-26T05:41:45.799Z,8.15
2019-03-26T05:44:18.807Z,8.19
2019-03-26T05:46:51.537Z,8.19
2019-03-26T05:49:24.117Z,8.19
2019-03-26T05:51:56.586Z,8.16
2019-03-26T05:54:29.315Z,8.15
2019-03-26T05:57:01.753Z,8.11
2019-03-26T05:59:34.306Z,8.09
2019-03-26T06:02:14.214Z,8.08
2019-03-26T06:04:40.945Z,8.11
2019-03-26T06:07:13.408Z,8.09
2019-03-26T06:09:45.868Z,8.16
2019-03-26T06:12:18.309Z,8.24
2019-03-26T06:14:50.966Z,8.32
2019-03-26T06:17:23.542Z,8.37
2019-03-26T06:19:56.023Z,8.43
2019-03-26T06:22:28.429Z,8.50
2019-03-26T06:25:01.267Z,8.55
2019-03-26T06:27:33.686Z,8.62
2019-03-26T06:30:07.319Z,8.68
2019-03-26T06:32:40.018Z,8.75
2019-03-26T06:35:12.432Z,8.80
2019-03-26T06:37:46.074Z,8.87
2019-03-26T06:40:18.843Z,8.93
2019-03-26T06:47:55.826Z,9.10
2019-03-26T06:50:28.718Z,9.12
2019-03-26T06:53:01.306Z,9.15
2019-03-26T06:55:33.755Z,9.17
2019-03-26T06:58:06.569Z,9.18
2019-03-26T07:00:38.995Z,9.17
2019-03-26T07:03:11.405Z,9.19
2019-03-26T07:05:43.834Z,9.18
2019-03-26T07:08:16.412Z,9.18
2019-03-26T07:10:49.342Z,9.17
2019-03-26T07:18:25.444Z,9.38
2019-03-26T07:20:57.851Z,9.45
2019-03-26T07:23:30.278Z,9.53
2019-03-26T07:26:02.884Z,9.59
2019-03-26T07:28:35.415Z,9.67
2019-03-26T07:31:08.097Z,9.77
2019-03-26T07:33:40.533Z,9.89
2019-03-26T07:36:12.997Z,9.94
2019-03-26T07:38:46.068Z,10.07
2019-03-26T07:41:18.527Z,10.13
2019-03-26T07:43:50.934Z,10.18
2019-03-26T07:46:23.475Z,10.22
2019-03-26T07:48:55.933Z,10.23
2019-03-26T07:51:28.666Z,10.27
2019-03-26T07:54:01.096Z,10.33
2019-03-26T07:56:33.631Z,10.38
2019-03-26T07:59:06.068Z,10.41
2019-03-26T08:01:38.558Z,10.43
2019-03-26T08:04:12.580Z,10.45
2019-03-26T08:06:46.669Z,10.49
2019-03-26T08:09:19.325Z,10.56
2019-03-26T08:11:51.789Z,10.63
2019-03-26T08:14:24.542Z,10.70
2019-03-26T08:16:57.101Z,10.75
2019-03-26T08:19:29.541Z,10.79
2019-03-26T08:22:02.135Z,10.85
2019-03-26T08:24:34.792Z,10.88
2019-03-26T08:27:07.353Z,10.87
2019-03-26T08:29:39.741Z,10.86
2019-03-26T08:32:12.370Z,10.86
2019-03-26T08:34:46.857Z,10.90
2019-03-26T08:37:19.449Z,10.92
2019-03-26T08:39:51.891Z,10.99
2019-03-26T08:47:29.279Z,11.31
2019-03-26T08:50:01.867Z,11.40
2019-03-26T08:52:34.474Z,11.48
2019-03-26T08:55:08.189Z,11.63
2019-03-26T08:57:40.749Z,11.79
2019-03-26T09:00:14.383Z,11.96
2019-03-26T09:02:46.824Z,12.08
2019-03-26T09:05:19.287Z,12.18
2019-03-26T09:07:52.187Z,12.25
2019-03-26T09:10:24.677Z,12.26
2019-03-26T09:12:57.163Z,12.21
2019-03-26T09:15:29.899Z,12.29
2019-03-26T09:18:02.384Z,12.33
2019-03-26T09:20:34.865Z,12.36
2019-03-26T09:23:07.894Z,12.41
2019-03-26T09:25:40.493Z,12.48
2019-03-26T09:28:12.965Z,12.53
2019-03-26T09:30:46.437Z,12.62
2019-03-26T09:33:19.295Z,12.70
2019-03-26T09:35:51.914Z,12.81
2019-03-26T09:38:37.935Z,12.90
2019-03-26T09:40:58.814Z,12.94
2019-03-26T09:43:31.271Z,12.98
2019-03-26T09:46:03.830Z,13.01
2019-03-26T09:48:36.644Z,13.07
2019-03-26T09:51:10.778Z,13.13
2019-03-26T09:53:43.750Z,13.16
2019-03-26T09:56:28.344Z,13.17
2019-03-26T09:58:51.086Z,13.17
2019-03-26T10:01:23.536Z,13.13
2019-03-26T10:03:55.935Z,13.12
2019-03-26T10:06:28.407Z,13.10
2019-03-26T10:09:30.392Z,13.12
2019-03-26T10:12:02.841Z,13.18
2019-03-26T10:14:35.289Z,13.23
2019-03-26T10:17:07.826Z,13.30
2019-03-26T10:19:40.289Z,13.34
2019-03-26T10:22:12.904Z,13.37
2019-03-26T10:24:47.040Z,13.42
2019-03-26T10:27:19.576Z,13.48
2019-03-26T10:29:52.045Z,13.48
2019-03-26T10:32:24.528Z,13.46
2019-03-26T10:34:57.066Z,13.52
2019-03-26T10:37:29.978Z,13.63
2019-03-26T10:40:04.540Z,13.73
2019-03-26T10:42:37.354Z,13.84
2019-03-26T10:45:10.897Z,13.91
2019-03-26T10:47:43.416Z,13.90
2019-03-26T10:50:16.269Z,13.84
2019-03-26T10:52:48.879Z,13.82
2019-03-26T10:55:21.354Z,13.83
2019-03-26T10:57:54.204Z,13.82
2019-03-26T11:00:27.013Z,13.81
2019-03-26T11:02:59.591Z,13.76
2019-03-26T11:05:32.122Z,13.71
2019-03-26T11:08:04.608Z,13.62
2019-03-26T11:10:37.109Z,13.56
2019-03-26T11:13:10.003Z,13.51
2019-03-26T11:15:42.450Z,13.47
2019-03-26T11:18:14.924Z,13.46
2019-03-26T11:20:47.378Z,13.45
2019-03-26T11:23:20.463Z,13.49
2019-03-26T11:25:52.967Z,13.55
2019-03-26T11:28:25.842Z,13.62
2019-03-26T11:30:58.327Z,13.69
2019-03-26T11:33:30.789Z,13.71
2019-03-26T11:36:03.274Z,13.70
2019-03-26T11:38:35.733Z,13.72
2019-03-26T11:41:08.157Z,13.76
2019-03-26T11:43:41.369Z,13.79
2019-03-26T11:46:13.851Z,13.75
2019-03-26T11:48:46.747Z,13.75
2019-03-26T11:51:19.405Z,13.86
2019-03-26T11:53:51.925Z,14.03
2019-03-26T11:56:24.414Z,14.15
2019-03-26T11:58:57.573Z,14.27
2019-03-26T12:01:30.692Z,14.34
2019-03-26T12:04:04.740Z,14.36
2019-03-26T12:06:37.217Z,14.32
2019-03-26T12:09:10.407Z,14.29
2019-03-26T12:11:43.084Z,14.25
2019-03-26T12:14:16.250Z,14.18
2019-03-26T12:16:48.921Z,14.14
2019-03-26T12:19:22.085Z,14.08
2019-03-26T12:21:54.498Z,14.05
2019-03-26T12:24:26.971Z,14.04
2019-03-26T12:26:59.440Z,14.05
2019-03-26T12:29:32.623Z,14.06
2019-03-26T12:32:05.328Z,14.07
2019-03-26T12:34:38.040Z,14.10
2019-03-26T12:37:10.508Z,14.17
2019-03-26T12:39:58.617Z,14.25
2019-03-26T12:42:21.565Z,14.30
2019-03-26T12:44:54.871Z,14.37
2019-03-26T12:47:27.475Z,14.43
2019-03-26T12:50:00.651Z,14.50
2019-03-26T12:52:33.313Z,14.57
2019-03-26T12:55:05.935Z,14.58
2019-03-26T12:57:38.502Z,14.55
2019-03-26T13:00:11.424Z,14.54
2019-03-26T13:02:44.360Z,14.54
2019-03-26T13:05:16.898Z,14.57
2019-03-26T13:07:49.784Z,14.63
2019-03-26T13:15:01.480Z,14.68
2019-03-26T13:17:33.919Z,14.71
2019-03-26T13:20:07.487Z,14.74
2019-03-26T13:22:40.270Z,14.69
2019-03-26T13:25:12.828Z,14.64
2019-03-26T13:27:45.406Z,14.63
2019-03-26T13:30:19.709Z,14.67
2019-03-26T13:32:52.172Z,14.66
2019-03-26T13:35:24.707Z,14.67
2019-03-26T13:37:57.908Z,14.70
2019-03-26T13:40:30.344Z,14.77
2019-03-26T13:43:02.952Z,14.76
2019-03-26T13:45:35.392Z,14.74
2019-03-26T13:48:07.864Z,14.61
2019-03-26T13:50:40.415Z,14.48
2019-03-26T13:53:13.561Z,14.34
2019-03-26T13:55:47.201Z,14.28
2019-03-26T13:58:19.650Z,14.28
2019-03-26T14:00:52.140Z,14.28
2019-03-26T14:03:24.606Z,14.27
2019-03-26T14:05:57.103Z,14.31
2019-03-26T14:08:30.284Z,14.45
2019-03-26T14:11:02.721Z,14.57
2019-03-26T14:13:35.330Z,14.65
2019-03-26T14:16:07.760Z,14.71
2019-03-26T14:18:40.265Z,14.77
2019-03-26T14:21:12.925Z,14.83
2019-03-26T14:23:46.058Z,14.89
2019-03-26T14:26:18.499Z,14.90
2019-03-26T14:28:51.356Z,14.86
2019-03-26T14:31:23.901Z,14.82
2019-03-26T14:33:56.423Z,14.82
2019-03-26T14:36:28.977Z,14.85
2019-03-26T14:39:01.492Z,14.90
2019-03-26T14:41:34.084Z,14.95
2019-03-26T14:44:06.707Z,14.98
2019-03-26T14:46:39.799Z,14.95
2019-03-26T14:49:12.244Z,14.87
2019-03-26T14:51:44.877Z,14.81
2019-03-26T14:54:17.414Z,14.73
2019-03-26T14:56:49.994Z,14.64
2019-03-26T14:59:22.489Z,14.55
2019-03-26T15:01:55.333Z,14.47
2019-03-26T15:04:27.800Z,14.40
2019-03-26T15:07:00.453Z,14.39
2019-03-26T15:09:32.940Z,14.43
2019-03-26T15:12:05.529Z,14.47
2019-03-26T15:14:38.186Z,14.50
2019-03-26T15:17:11.120Z,14.51
2019-03-26T15:19:43.568Z,14.51
2019-03-26T15:22:16.058Z,14.48
2019-03-26T15:24:48.642Z,14.42
2019-03-26T15:27:21.183Z,14.36
2019-03-26T15:29:53.666Z,14.32
2019-03-26T15:32:27.161Z,14.29
2019-03-26T15:34:59.641Z,14.27
2019-03-26T15:37:32.956Z,14.25
2019-03-26T15:40:05.914Z,14.25
2019-03-26T15:42:38.405Z,14.27
2019-03-26T15:45:11.368Z,14.31
2019-03-26T15:47:44.486Z,14.32
2019-03-26T15:50:36.925Z,14.33
2019-03-26T15:53:11.706Z,14.35
2019-03-26T15:55:44.636Z,14.38
2019-03-26T15:58:17.198Z,14.41
2019-03-26T16:00:49.666Z,14.43
2019-03-26T16:03:22.958Z,14.42
2019-03-26T16:05:55.432Z,14.40
2019-03-26T16:08:28.053Z,14.39
2019-03-26T16:11:00.614Z,14.39
2019-03-26T16:13:35.743Z,14.36
2019-03-26T16:16:07.386Z,14.35
2019-03-26T16:18:40.598Z,14.35
2019-03-26T16:21:13.183Z,14.35
2019-03-26T16:23:45.695Z,14.31
2019-03-26T16:26:20.616Z,14.32
2019-03-26T16:28:52.403Z,14.35
2019-03-26T16:31:24.918Z,14.35
2019-03-26T16:33:58.192Z,14.37
2019-03-26T16:36:30.818Z,14.35
2019-03-26T16:39:04.637Z,14.33
2019-03-26T16:41:48.369Z,14.28
2019-03-26T16:44:11.495Z,14.26
2019-03-26T16:46:44.122Z,14.26
2019-03-26T16:49:17.315Z,14.25
2019-03-26T16:51:50.734Z,14.26
2019-03-26T16:54:23.262Z,14.22
2019-03-26T16:56:56.486Z,14.18
2019-03-26T16:59:29.245Z,14.13
2019-03-26T17:02:01.978Z,14.08
2019-03-26T17:04:35.558Z,14.03
2019-03-26T17:07:08.077Z,13.97
2019-03-26T17:09:40.563Z,13.92
2019-03-26T17:12:13.105Z,13.84
2019-03-26T17:14:45.717Z,13.78
2019-03-26T17:17:18.176Z,13.72
2019-03-26T17:19:51.401Z,13.66
2019-03-26T17:22:24.047Z,13.63
2019-03-26T17:24:56.561Z,13.60
2019-03-26T17:27:29.326Z,13.56
2019-03-26T17:30:02.132Z,13.51
2019-03-26T17:32:34.679Z,13.48
2019-03-26T17:35:09.228Z,13.40
2019-03-26T17:37:41.674Z,13.31
2019-03-26T17:40:14.155Z,13.21
2019-03-26T17:42:46.628Z,13.13
2019-03-26T17:45:19.155Z,13.07
2019-03-26T17:47:51.661Z,13.00
2019-03-26T17:50:24.841Z,12.93
2019-03-26T17:52:57.412Z,12.85
2019-03-26T17:55:30.303Z,12.79
2019-03-26T17:58:02.841Z,12.72
2019-03-26T18:00:48.773Z,12.65
2019-03-26T18:03:26.703Z,12.57
2019-03-26T18:05:56.147Z,12.50
2019-03-26T18:08:28.716Z,12.46
2019-03-26T18:11:01.331Z,12.44
2019-03-26T18:13:33.803Z,12.41
2019-03-26T18:16:06.633Z,12.36
2019-03-26T18:18:39.103Z,12.35
2019-03-26T18:21:12.243Z,12.35
2019-03-26T18:23:44.818Z,12.35
2019-03-26T18:26:17.348Z,12.38
2019-03-26T18:28:49.907Z,12.40
2019-03-26T18:31:22.576Z,12.40
2019-03-26T18:33:55.047Z,12.42
2019-03-26T18:36:28.373Z,12.42
2019-03-26T18:39:00.927Z,12.42
2019-03-26T18:41:33.626Z,12.37
2019-03-26T18:44:06.157Z,12.19
2019-03-26T18:46:38.639Z,12.07
2019-03-26T18:49:11.189Z,11.98
2019-03-26T18:51:43.785Z,11.93
2019-03-26T18:54:16.941Z,11.89
2019-03-26T18:56:49.630Z,11.78
2019-03-26T18:59:22.265Z,11.77
2019-03-26T19:01:54.829Z,11.74
2019-03-26T19:04:27.444Z,11.70
2019-03-26T19:07:00.041Z,11.67
2019-03-26T19:09:34.652Z,11.68
2019-03-26T19:12:07.240Z,11.69
2019-03-26T19:14:39.976Z,11.68
2019-03-26T19:17:12.754Z,11.67
2019-03-26T19:19:48.348Z,11.68
2019-03-26T19:22:20.872Z,11.67
2019-03-26T19:24:53.545Z,11.66
2019-03-26T19:27:26.077Z,11.66
2019-03-26T19:29:58.640Z,11.61
2019-03-26T19:32:31.246Z,11.60
2019-03-26T19:35:03.827Z,11.61
2019-03-26T19:37:36.349Z,11.58
2019-03-26T19:40:10.024Z,11.53
2019-03-26T19:42:42.534Z,11.49
2019-03-26T19:45:15.272Z,11.51
2019-03-26T19:47:48.859Z,11.52
2019-03-26T19:50:21.719Z,11.54
2019-03-26T19:52:54.362Z,11.52
2019-03-26T19:55:27.011Z,11.46
2019-03-26T19:57:59.544Z,11.40
2019-03-26T20:00:32.102Z,11.38
2019-03-26T20:03:04.744Z,11.38
2019-03-26T20:05:37.310Z,11.35
2019-03-26T20:08:10.234Z,11.29
2019-03-26T20:10:43.098Z,11.25
2019-03-26T20:13:24.148Z,11.24
2019-03-26T20:15:50.030Z,11.21
2019-03-26T20:18:25.289Z,11.18
2019-03-26T20:20:57.908Z,11.18
2019-03-26T20:23:30.372Z,11.20
2019-03-26T20:26:03.326Z,11.21
2019-03-26T20:28:35.882Z,11.20
2019-03-26T20:31:08.431Z,11.20
2019-03-26T20:33:42.557Z,11.20
2019-03-26T20:36:15.474Z,11.19
2019-03-26T20:38:51.422Z,11.17
2019-03-26T20:41:23.526Z,11.17
2019-03-26T20:43:56.330Z,11.18
2019-03-26T20:46:29.003Z,11.19
2019-03-26T20:49:01.525Z,11.20
2019-03-26T20:51:34.222Z,11.16
2019-03-26T20:54:06.732Z,11.07
2019-03-26T20:56:40.945Z,10.93
2019-03-26T20:59:14.316Z,10.82
2019-03-26T21:01:46.882Z,10.70
2019-03-26T21:04:19.470Z,10.63
2019-03-26T21:06:52.018Z,10.56
2019-03-26T21:09:24.492Z,10.52
2019-03-26T21:11:56.985Z,10.49
2019-03-26T21:14:29.670Z,10.43
2019-03-26T21:17:02.448Z,10.34
2019-03-26T21:19:35.230Z,10.26
2019-03-26T21:22:07.874Z,10.20
2019-03-26T21:24:40.325Z,10.13
2019-03-26T21:27:12.803Z,10.07
2019-03-26T21:29:45.475Z,10.01
2019-03-26T21:32:17.913Z,9.95
2019-03-26T21:34:50.483Z,9.92
2019-03-26T21:37:23.311Z,9.89
2019-03-26T21:39:55.940Z,9.85
2019-03-26T21:42:28.372Z,9.82
2019-03-26T21:45:00.979Z,9.77
2019-03-26T21:47:33.656Z,9.76
2019-03-26T21:50:07.444Z,9.74
2019-03-26T21:52:40.058Z,9.73
2019-03-26T21:55:13.530Z,9.72
2019-03-26T21:57:46.210Z,9.67
2019-03-26T22:00:19.326Z,9.63
2019-03-26T22:02:52.037Z,9.58
2019-03-26T22:05:24.573Z,9.55
2019-03-26T22:07:57.021Z,9.49
2019-03-26T22:10:29.498Z,9.46
2019-03-26T22:13:02.018Z,9.44
2019-03-26T22:15:34.726Z,9.42
2019-03-26T22:18:07.212Z,9.40
2019-03-26T22:20:39.758Z,9.40
2019-03-26T22:23:12.323Z,9.39
2019-03-26T22:25:44.995Z,9.39
2019-03-26T22:28:17.497Z,9.41
2019-03-26T22:30:50.130Z,9.43
2019-03-26T22:33:22.570Z,9.45
2019-03-26T22:35:56.201Z,9.44
2019-03-26T22:38:28.848Z,9.44
2019-03-26T22:41:01.385Z,9.42
2019-03-26T22:43:33.924Z,9.39
2019-03-26T22:46:06.678Z,9.38
2019-03-26T22:48:39.137Z,9.37
2019-03-26T22:51:11.781Z,9.37
2019-03-26T22:53:44.639Z,9.39
2019-03-26T22:56:17.174Z,9.41
2019-03-26T22:58:49.615Z,9.48
2019-03-26T23:01:22.171Z,9.54
2019-03-26T23:03:54.563Z,9.60
2019-03-26T23:06:27.110Z,9.63
2019-03-26T23:08:59.659Z,9.62
2019-03-26T23:11:32.329Z,9.62
2019-03-26T23:14:04.808Z,9.62
2019-03-26T23:16:37.493Z,9.60
2019-03-26T23:19:10.254Z,9.60
2019-03-26T23:21:42.719Z,9.62
2019-03-26T23:24:15.227Z,9.68
2019-03-26T23:26:47.708Z,9.73
2019-03-26T23:29:20.477Z,9.83
2019-03-26T23:31:54.083Z,9.91
2019-03-26T23:34:26.742Z,9.99
2019-03-26T23:36:59.259Z,10.05
2019-03-26T23:39:31.754Z,10.09
2019-03-26T23:42:04.222Z,10.07
2019-03-26T23:44:36.724Z,10.06
2019-03-26T23:47:09.161Z,10.09
2019-03-26T23:49:41.716Z,10.09
2019-03-26T23:52:14.793Z,10.08
2019-03-26T23:54:47.283Z,10.02
2019-03-26T23:57:19.634Z,9.96
2019-03-26T23:59:52.057Z,9.92
